Time;durP1;ratioP1;P1;durP2;ratioP2;P2;SDS_P1;SDS_P2;PMS_P1;PMS_P2;Temp;Humidity;BMP_temperature;BMP_pressure;BME280_temperature;BME280_humidity;BME280_pressure;Samples;Min_cycle;Max_cycle;Signal;HPM_P1;HPM_P2
2023/12/19 00:00:41;;;;;;;17.45;12.77;;;16.40;83.80;;;;;;4189175;28;20055;-62
2023/12/19 00:03:22;;;;;;;22.45;12.85;;;16.40;83.80;;;;;;4187859;28;20055;-62
2023/12/19 00:06:03;;;;;;;18.05;11.90;;;16.30;83.70;;;;;;4188838;28;20063;-62
2023/12/19 00:08:44;;;;;;;16.77;11.77;;;16.30;84.00;;;;;;4172450;28;20052;-62
2023/12/19 00:11:25;;;;;;;16.20;12.65;;;16.30;84.00;;;;;;4171903;28;20495;-62
2023/12/19 00:14:07;;;;;;;16.63;11.20;;;16.40;84.80;;;;;;4173196;28;20146;-62
2023/12/19 00:16:48;;;;;;;12.60;10.32;;;16.50;83.70;;;;;;4187814;28;20437;-61
2023/12/19 00:19:29;;;;;;;17.23;11.55;;;16.50;83.40;;;;;;4188214;28;20190;-61
2023/12/19 00:22:10;;;;;;;17.33;11.32;;;16.50;83.20;;;;;;4157477;28;20055;-61
2023/12/19 00:24:51;;;;;;;12.52;10.50;;;16.60;83.10;;;;;;4173136;28;20048;-61
2023/12/19 00:27:32;;;;;;;16.15;10.73;;;16.60;83.00;;;;;;4188905;28;20443;-61
2023/12/19 00:30:14;;;;;;;15.90;10.75;;;16.60;83.00;;;;;;4188785;28;20087;-61
2023/12/19 00:32:55;;;;;;;14.38;10.60;;;16.60;83.00;;;;;;4170726;28;20166;-61
2023/12/19 00:35:36;;;;;;;15.95;10.88;;;16.60;82.90;;;;;;4174442;28;20082;-61
2023/12/19 00:38:17;;;;;;;14.65;11.38;;;16.50;83.00;;;;;;4170791;28;20060;-61
2023/12/19 00:40:58;;;;;;;14.32;10.05;;;16.50;83.10;;;;;;4173046;28;20095;-61
2023/12/19 00:43:40;;;;;;;14.52;10.18;;;16.50;83.10;;;;;;4187347;28;20127;-61
2023/12/19 00:46:23;;;;;;;14.10;10.63;;;16.50;83.10;;;;;;4187956;28;20109;-62
2023/12/19 00:49:04;;;;;;;12.93;9.98;;;16.50;82.90;;;;;;4185707;28;20093;-62
2023/12/19 00:51:45;;;;;;;14.48;10.10;;;16.50;83.00;;;;;;4188055;28;20067;-62
2023/12/19 00:54:26;;;;;;;14.65;10.07;;;16.50;83.20;;;;;;4186936;28;20059;-62
2023/12/19 00:57:08;;;;;;;13.95;10.57;;;16.50;83.40;;;;;;4169346;28;20102;-62
2023/12/19 00:59:48;;;;;;;11.63;8.38;;;16.50;83.30;;;;;;4170446;28;20055;-61
2023/12/19 01:02:31;;;;;;;12.37;9.33;;;16.50;83.30;;;;;;4185403;28;20101;-56
2023/12/19 01:05:12;;;;;;;15.88;9.35;;;16.50;83.20;;;;;;4173228;28;20044;-53
2023/12/19 01:07:54;;;;;;;13.38;9.32;;;16.40;83.20;;;;;;4188531;28;20130;-54
2023/12/19 01:10:34;;;;;;;11.85;7.90;;;16.40;83.50;;;;;;4187776;28;20514;-57
2023/12/19 01:13:15;;;;;;;11.05;8.15;;;16.40;84.60;;;;;;4187885;28;20054;-56
2023/12/19 01:15:57;;;;;;;10.25;8.45;;;16.30;83.70;;;;;;4187109;28;20659;-56
2023/12/19 01:18:39;;;;;;;13.00;9.82;;;16.30;84.10;;;;;;4187228;28;20052;-56
2023/12/19 01:21:19;;;;;;;10.20;8.00;;;16.30;84.30;;;;;;4185158;28;20491;-57
2023/12/19 01:24:00;;;;;;;10.90;9.15;;;16.30;83.80;;;;;;4187380;28;20059;-57
2023/12/19 01:26:42;;;;;;;11.95;8.20;;;16.40;83.70;;;;;;4185920;28;20071;-57
2023/12/19 01:29:23;;;;;;;12.60;8.38;;;16.50;83.50;;;;;;4187785;28;20060;-57
2023/12/19 01:32:04;;;;;;;12.30;8.95;;;16.50;83.30;;;;;;4187184;28;20075;-57
2023/12/19 01:34:47;;;;;;;10.43;8.02;;;16.50;83.20;;;;;;4179702;28;20047;-52
2023/12/19 01:37:28;;;;;;;10.77;9.02;;;16.50;83.10;;;;;;4163933;28;20109;-53
2023/12/19 01:40:09;;;;;;;11.98;8.52;;;16.50;84.00;;;;;;4187813;28;20076;-53
2023/12/19 01:42:50;;;;;;;10.23;8.52;;;16.50;83.30;;;;;;4186391;28;20113;-54
2023/12/19 01:45:31;;;;;;;10.15;8.85;;;16.50;83.40;;;;;;4186519;28;20071;-55
2023/12/19 01:48:12;;;;;;;9.05;7.97;;;16.50;83.20;;;;;;4169601;28;20056;-54
2023/12/19 01:50:55;;;;;;;10.23;8.50;;;16.50;83.20;;;;;;4187109;28;20047;-52
2023/12/19 01:53:36;;;;;;;10.25;8.27;;;16.60;83.50;;;;;;4187043;28;20507;-52
2023/12/19 01:56:20;;;;;;;8.95;7.75;;;16.60;83.20;;;;;;4186376;28;20602;-53
2023/12/19 01:59:02;;;;;;;8.90;7.70;;;16.70;83.00;;;;;;4187411;28;20063;-53
2023/12/19 02:01:43;;;;;;;11.82;9.13;;;16.70;82.90;;;;;;4187810;28;20101;-55
2023/12/19 02:04:24;;;;;;;10.15;8.30;;;16.70;82.80;;;;;;4187560;28;20047;-52
2023/12/19 02:07:07;;;;;;;11.07;8.75;;;16.80;82.60;;;;;;4187290;28;20686;-57
2023/12/19 02:09:48;;;;;;;9.77;8.48;;;16.80;82.30;;;;;;4187370;28;20050;-56
2023/12/19 02:12:29;;;;;;;8.85;7.50;;;16.80;82.50;;;;;;4186926;28;20043;-53
2023/12/19 02:15:11;;;;;;;8.93;8.02;;;16.80;82.60;;;;;;4171679;28;20060;-55
2023/12/19 02:17:51;;;;;;;8.38;7.57;;;16.80;82.30;;;;;;4184394;28;20054;-58
2023/12/19 02:20:32;;;;;;;9.13;7.70;;;16.80;82.30;;;;;;4180225;28;20169;-55
2023/12/19 02:23:15;;;;;;;8.68;7.80;;;16.80;82.20;;;;;;4187391;28;20181;-57
2023/12/19 02:25:57;;;;;;;8.57;7.75;;;16.80;82.10;;;;;;4186685;28;20059;-56
2023/12/19 02:28:38;;;;;;;8.23;7.25;;;16.90;82.00;;;;;;4198020;28;20055;-56
2023/12/19 02:31:18;;;;;;;8.60;7.10;;;16.90;81.70;;;;;;4187159;28;20079;-55
2023/12/19 02:34:00;;;;;;;7.63;6.93;;;17.00;81.40;;;;;;4191250;28;20306;-56
2023/12/19 02:36:41;;;;;;;8.35;7.20;;;16.90;81.40;;;;;;4168952;28;20048;-54
2023/12/19 02:39:23;;;;;;;8.25;7.50;;;16.90;81.40;;;;;;4170592;28;20072;-54
2023/12/19 02:42:05;;;;;;;7.15;6.35;;;16.90;81.80;;;;;;4170447;28;20060;-57
2023/12/19 02:44:45;;;;;;;7.15;6.55;;;16.90;81.90;;;;;;4173155;28;20143;-56
2023/12/19 02:47:26;;;;;;;7.78;7.07;;;16.90;81.90;;;;;;4163545;28;20138;-56
2023/12/19 02:50:08;;;;;;;7.65;6.85;;;16.80;81.90;;;;;;4177753;28;20101;-57
2023/12/19 02:52:49;;;;;;;;;;;16.80;82.00;;;;;;4171289;28;20052;-56
2023/12/19 02:55:31;;;;;;;7.70;6.90;;;16.80;82.30;;;;;;4185200;28;20362;-56
2023/12/19 02:58:12;;;;;;;7.63;6.75;;;16.70;82.30;;;;;;4186995;28;20544;-56
2023/12/19 03:00:53;;;;;;;7.82;7.03;;;16.60;82.50;;;;;;4185403;28;20082;-57
2023/12/19 03:03:34;;;;;;;8.20;7.10;;;16.60;83.00;;;;;;4179854;28;20102;-56
2023/12/19 03:06:16;;;;;;;7.18;6.32;;;16.50;83.20;;;;;;4184911;28;20399;-56
2023/12/19 03:08:57;;;;;;;7.30;6.60;;;16.50;83.40;;;;;;4185865;28;20144;-57
2023/12/19 03:11:40;;;;;;;8.10;7.30;;;16.50;83.50;;;;;;4186910;28;20063;-57
2023/12/19 03:14:21;;;;;;;8.00;7.20;;;16.50;83.80;;;;;;4186538;28;20467;-58
2023/12/19 03:17:04;;;;;;;6.88;6.28;;;16.50;84.40;;;;;;4180804;28;20063;-58
2023/12/19 03:19:45;;;;;;;7.80;7.00;;;16.60;83.50;;;;;;4168729;28;20060;-58
2023/12/19 03:22:26;;;;;;;6.75;6.15;;;16.60;83.10;;;;;;4153172;28;20057;-58
2023/12/19 03:25:08;;;;;;;6.57;5.97;;;16.60;83.00;;;;;;4155490;28;20061;-58
2023/12/19 03:27:50;;;;;;;6.90;6.30;;;16.60;83.10;;;;;;4164854;28;20048;-58
2023/12/19 03:30:32;;;;;;;6.53;5.93;;;16.50;83.20;;;;;;4173573;28;20056;-59
2023/12/19 03:33:13;;;;;;;6.18;5.57;;;16.50;84.30;;;;;;4172580;28;20084;-56
2023/12/19 03:35:55;;;;;;;6.78;6.07;;;16.40;83.80;;;;;;4179590;28;20090;-55
2023/12/19 03:38:37;;;;;;;6.72;5.90;;;16.50;84.00;;;;;;4190049;28;20403;-55
2023/12/19 03:41:18;;;;;;;6.35;5.75;;;16.60;83.70;;;;;;4189667;28;20075;-53
2023/12/19 03:44:00;;;;;;;6.38;5.60;;;16.70;83.30;;;;;;4189615;28;20055;-55
2023/12/19 03:46:41;;;;;;;5.78;5.28;;;16.70;83.00;;;;;;4176546;28;20056;-56
2023/12/19 03:49:22;;;;;;;6.00;5.20;;;16.80;82.80;;;;;;4189265;28;20055;-55
2023/12/19 03:52:04;;;;;;;5.53;5.03;;;16.80;82.60;;;;;;4169004;28;20060;-54
2023/12/19 03:54:46;;;;;;;5.32;4.82;;;16.80;82.50;;;;;;4172897;28;20887;-58
2023/12/19 03:57:27;;;;;;;4.13;3.72;;;16.80;82.50;;;;;;4187342;28;20051;-58
2023/12/19 04:00:11;;;;;;;5.00;4.60;;;16.90;82.30;;;;;;4173263;28;20052;-58
2023/12/19 04:02:52;;;;;;;4.28;3.95;;;16.90;82.10;;;;;;4172199;28;20052;-58
2023/12/19 04:05:32;;;;;;;4.18;3.78;;;16.90;81.80;;;;;;4178190;28;20059;-58
2023/12/19 04:08:13;;;;;;;4.07;3.78;;;16.90;81.80;;;;;;4172676;28;20064;-59
2023/12/19 04:10:55;;;;;;;4.97;4.57;;;16.80;82.00;;;;;;4172474;28;20052;-59
2023/12/19 04:13:38;;;;;;;3.97;3.67;;;16.80;82.10;;;;;;4157290;28;20049;-59
2023/12/19 04:16:20;;;;;;;4.25;3.85;;;16.70;82.70;;;;;;4185017;28;20052;-58
2023/12/19 04:19:02;;;;;;;3.50;3.20;;;16.70;82.90;;;;;;4156426;28;20056;-57
2023/12/19 04:21:43;;;;;;;4.05;3.75;;;16.80;82.90;;;;;;4171502;28;20044;-57
2023/12/19 04:24:25;;;;;;;3.13;2.92;;;16.80;82.60;;;;;;4161504;28;20195;-58
2023/12/19 04:27:06;;;;;;;4.30;3.67;;;16.90;82.20;;;;;;4172854;28;20060;-57
2023/12/19 04:29:47;;;;;;;3.20;3.00;;;17.00;81.70;;;;;;4159192;28;20048;-57
2023/12/19 04:32:29;;;;;;;3.30;3.10;;;17.00;81.40;;;;;;4172060;28;20182;-56
2023/12/19 04:35:10;;;;;;;3.15;2.95;;;17.00;81.60;;;;;;4188345;28;20052;-55
2023/12/19 04:37:51;;;;;;;3.33;3.13;;;17.00;81.50;;;;;;4188666;28;20056;-56
2023/12/19 04:40:33;;;;;;;2.53;2.40;;;17.00;81.70;;;;;;4165766;28;20051;-58
2023/12/19 04:43:14;;;;;;;3.08;2.88;;;17.00;81.70;;;;;;4155926;28;20397;-58
2023/12/19 04:45:55;;;;;;;3.13;2.85;;;17.00;81.80;;;;;;4165375;28;20056;-58
2023/12/19 04:48:37;;;;;;;2.63;2.42;;;17.00;81.80;;;;;;4171632;28;20052;-57
2023/12/19 04:51:19;;;;;;;2.90;2.70;;;16.90;82.00;;;;;;4175817;28;20570;-57
2023/12/19 04:54:03;;;;;;;2.90;2.75;;;16.90;82.10;;;;;;4188155;28;20051;-57
2023/12/19 04:56:44;;;;;;;3.28;3.08;;;16.90;82.00;;;;;;4171700;28;20055;-57
2023/12/19 04:59:25;;;;;;;3.20;3.00;;;16.90;81.90;;;;;;4156947;28;20135;-56
2023/12/19 05:02:06;;;;;;;2.88;2.67;;;16.90;82.10;;;;;;4157310;28;20397;-56
2023/12/19 05:04:48;;;;;;;2.90;2.70;;;16.90;82.20;;;;;;4159577;28;20087;-57
2023/12/19 05:07:31;;;;;;;2.88;2.67;;;17.00;82.10;;;;;;4172302;28;20060;-57
2023/12/19 05:10:12;;;;;;;3.13;2.92;;;17.00;81.80;;;;;;4159494;28;20060;-56
2023/12/19 05:12:53;;;;;;;3.00;2.80;;;17.10;81.50;;;;;;4172068;28;20187;-56
2023/12/19 05:15:34;;;;;;;3.08;2.88;;;17.10;81.50;;;;;;4186302;28;20048;-51
2023/12/19 05:18:18;;;;;;;3.25;3.05;;;17.10;81.50;;;;;;4172040;28;20051;-55
2023/12/19 05:21:00;;;;;;;2.40;2.30;;;17.10;82.40;;;;;;4171634;28;20093;-50
2023/12/19 05:23:41;;;;;;;2.50;2.40;;;17.00;81.40;;;;;;4171608;28;20051;-54
2023/12/19 05:26:22;;;;;;;2.70;2.50;;;17.00;81.40;;;;;;4171122;28;20545;-55
2023/12/19 05:29:04;;;;;;;2.65;2.55;;;17.00;82.30;;;;;;4171612;28;20064;-54
2023/12/19 05:31:45;;;;;;;2.42;2.28;;;17.00;81.70;;;;;;4187184;28;20093;-51
2023/12/19 05:34:26;;;;;;;2.30;2.20;;;16.90;82.00;;;;;;4187789;28;20055;-54
2023/12/19 05:37:08;;;;;;;3.17;2.10;;;16.80;82.10;;;;;;4170601;28;20056;-54
2023/12/19 05:39:49;;;;;;;2.30;2.20;;;16.70;82.30;;;;;;4171481;28;20059;-54
2023/12/19 05:42:31;;;;;;;2.15;2.05;;;16.70;82.70;;;;;;4171148;28;20048;-53
2023/12/19 05:45:12;;;;;;;2.38;2.17;;;16.60;83.00;;;;;;4171753;28;20056;-52
2023/12/19 05:47:53;;;;;;;2.05;1.95;;;16.70;83.10;;;;;;4184427;28;20052;-54
2023/12/19 05:50:34;;;;;;;2.10;2.00;;;16.70;82.90;;;;;;4170918;28;20097;-50
2023/12/19 05:53:17;;;;;;;2.08;1.98;;;16.80;82.90;;;;;;4171933;28;20222;-51
2023/12/19 05:55:58;;;;;;;2.03;1.92;;;16.90;82.60;;;;;;4173996;28;20055;-53
2023/12/19 05:58:39;;;;;;;2.13;2.03;;;17.00;82.20;;;;;;4175037;28;20534;-49
2023/12/19 06:01:21;;;;;;;2.30;2.10;;;17.00;81.80;;;;;;4169033;28;20060;-53
2023/12/19 06:04:03;;;;;;;1.63;1.52;;;17.00;81.80;;;;;;4171236;28;20124;-51
2023/12/19 06:06:44;;;;;;;;;;;17.00;81.90;;;;;;4185376;28;20183;-50
2023/12/19 06:09:27;;;;;;;2.33;2.22;;;17.00;82.00;;;;;;4187826;28;19973;-50
2023/12/19 06:12:08;;;;;;;2.10;2.00;;;17.10;81.80;;;;;;4171288;28;20094;-51
2023/12/19 06:14:49;;;;;;;1.70;1.60;;;17.10;81.50;;;;;;4187977;28;20516;-50
2023/12/19 06:17:30;;;;;;;1.88;1.77;;;17.10;81.50;;;;;;4175648;28;20093;-51
2023/12/19 06:20:12;;;;;;;1.73;1.63;;;17.00;81.40;;;;;;4187178;28;20059;-53
2023/12/19 06:22:53;;;;;;;3.42;1.70;;;17.00;81.80;;;;;;4181487;28;20072;-51
2023/12/19 06:25:38;;;;;;;2.00;1.90;;;16.90;81.90;;;;;;4186742;28;20056;-49
2023/12/19 06:28:19;;;;;;;1.90;1.80;;;16.90;81.80;;;;;;4186832;28;20101;-52
2023/12/19 06:31:00;;;;;;;2.30;2.20;;;17.00;82.00;;;;;;4187203;28;20130;-51
2023/12/19 06:33:43;;;;;;;2.35;2.20;;;17.00;82.00;;;;;;4171012;28;20052;-51
2023/12/19 06:36:28;;;;;;;1.90;1.80;;;17.00;82.00;;;;;;4180502;28;20064;-51
2023/12/19 06:39:09;;;;;;;2.20;2.08;;;17.00;82.10;;;;;;4186099;28;20060;-54
2023/12/19 06:41:54;;;;;;;2.05;1.85;;;17.00;82.50;;;;;;4167684;28;20052;-49
2023/12/19 06:44:35;;;;;;;2.40;2.30;;;17.00;82.40;;;;;;4182040;28;20064;-50
2023/12/19 06:47:16;;;;;;;2.78;2.58;;;17.00;82.30;;;;;;4171007;28;20630;-53
2023/12/19 06:49:57;;;;;;;1.98;1.85;;;17.00;82.20;;;;;;4177341;28;20621;-50
2023/12/19 06:52:38;;;;;;;2.05;1.95;;;17.00;82.40;;;;;;4186932;28;20059;-55
2023/12/19 06:55:19;;;;;;;2.05;1.83;;;17.00;82.50;;;;;;4185672;28;20174;-52
2023/12/19 06:58:02;;;;;;;1.55;1.45;;;17.00;82.20;;;;;;4186847;28;20051;-52
2023/12/19 07:00:43;;;;;;;1.80;1.70;;;17.10;81.90;;;;;;4183495;28;20056;-54
2023/12/19 07:03:24;;;;;;;2.10;2.00;;;17.20;81.60;;;;;;4166197;28;20049;-55
2023/12/19 07:06:06;;;;;;;2.08;1.98;;;17.20;81.60;;;;;;4170410;28;20202;-53
2023/12/19 07:08:47;;;;;;;1.73;1.63;;;17.20;81.70;;;;;;4186272;28;20059;-50
2023/12/19 07:11:30;;;;;;;1.75;1.65;;;17.20;81.60;;;;;;4185626;28;20051;-54
2023/12/19 07:14:12;;;;;;;1.80;1.70;;;17.20;81.60;;;;;;4186398;28;20158;-52
2023/12/19 07:16:53;;;;;;;1.75;1.65;;;17.10;81.50;;;;;;4182418;28;20055;-51
2023/12/19 07:19:35;;;;;;;2.03;1.92;;;17.10;81.50;;;;;;4186473;28;20051;-55
2023/12/19 07:22:16;;;;;;;2.10;2.00;;;17.20;81.60;;;;;;4169237;28;20114;-51
2023/12/19 07:24:57;;;;;;;1.97;1.87;;;17.20;81.40;;;;;;4185610;28;20399;-54
2023/12/19 07:27:37;;;;;;;2.05;1.95;;;17.20;81.20;;;;;;4170249;28;21281;-51
2023/12/19 07:30:22;;;;;;;1.70;1.60;;;17.20;81.20;;;;;;4172097;28;20090;-50
2023/12/19 07:33:04;;;;;;;1.45;1.38;;;17.10;81.20;;;;;;4169943;28;20067;-50
2023/12/19 07:35:45;;;;;;;1.58;1.50;;;17.10;81.40;;;;;;4186090;28;20051;-48
2023/12/19 07:38:26;;;;;;;1.92;1.83;;;17.10;82.00;;;;;;4186155;28;20055;-56
2023/12/19 07:41:07;;;;;;;2.05;1.95;;;17.10;81.30;;;;;;4169773;28;20064;-54
2023/12/19 07:43:48;;;;;;;1.83;1.73;;;17.10;81.20;;;;;;4171377;28;20055;-55
2023/12/19 07:46:31;;;;;;;;;;;17.10;81.00;;;;;;4179173;28;20060;-54
2023/12/19 07:49:12;;;;;;;1.70;1.60;;;17.00;81.20;;;;;;4167500;28;19931;-53
2023/12/19 07:51:53;;;;;;;2.53;1.90;;;16.90;81.30;;;;;;4178928;28;20589;-52
2023/12/19 07:54:34;;;;;;;1.88;1.77;;;16.90;81.70;;;;;;4166297;28;20388;-53
2023/12/19 07:57:16;;;;;;;1.70;1.60;;;16.90;81.80;;;;;;4167118;28;20056;-59
2023/12/19 07:59:56;;;;;;;1.83;1.73;;;16.90;81.80;;;;;;4175079;28;20055;-59
2023/12/19 08:02:40;;;;;;;1.75;1.65;;;16.90;81.60;;;;;;4178410;28;20055;-59
2023/12/19 08:05:21;;;;;;;1.92;1.75;;;16.90;81.70;;;;;;4168213;28;20063;-59
2023/12/19 08:08:04;;;;;;;1.70;1.60;;;16.80;81.80;;;;;;4172820;28;20083;-59
2023/12/19 08:10:46;;;;;;;1.83;1.73;;;16.80;82.00;;;;;;4182445;28;20830;-59
2023/12/19 08:13:27;;;;;;;1.60;1.50;;;16.70;82.20;;;;;;4189872;28;20075;-59
2023/12/19 08:16:10;;;;;;;1.75;1.65;;;16.70;82.60;;;;;;4179671;28;20075;-59
2023/12/19 08:18:52;;;;;;;1.88;1.65;;;16.60;82.80;;;;;;4179637;28;20083;-59
2023/12/19 08:21:33;;;;;;;3.25;1.48;;;16.60;83.00;;;;;;4182481;28;20086;-59
2023/12/19 08:24:14;;;;;;;1.88;1.52;;;16.60;83.00;;;;;;4168523;28;20092;-59
2023/12/19 08:26:55;;;;;;;3.00;1.80;;;16.60;83.00;;;;;;4176487;28;20293;-59
2023/12/19 08:29:36;;;;;;;1.65;1.55;;;16.50;83.00;;;;;;4171477;28;20048;-59
2023/12/19 08:32:17;;;;;;;1.77;1.67;;;16.60;83.20;;;;;;4178292;28;20068;-59
2023/12/19 08:35:00;;;;;;;1.60;1.60;;;16.60;83.30;;;;;;4183649;28;20060;-51
2023/12/19 08:37:41;;;;;;;1.92;1.63;;;16.50;83.10;;;;;;4191444;28;20101;-59
2023/12/19 08:40:23;;;;;;;1.88;1.77;;;16.50;83.60;;;;;;4173063;28;20075;-59
2023/12/19 08:43:04;;;;;;;1.63;1.52;;;16.50;83.90;;;;;;4175003;28;20056;-59
2023/12/19 08:45:45;;;;;;;2.13;2.03;;;16.60;83.70;;;;;;4174647;28;20048;-59
2023/12/19 08:48:26;;;;;;;1.17;1.17;;;16.60;83.60;;;;;;4172125;28;20645;-59
2023/12/19 08:51:09;;;;;;;1.85;1.75;;;16.60;83.50;;;;;;4171821;28;20060;-59
2023/12/19 08:53:50;;;;;;;1.17;1.17;;;16.70;83.30;;;;;;4171082;28;20044;-59
2023/12/19 08:56:31;;;;;;;1.60;1.50;;;16.70;83.10;;;;;;4169775;28;20090;-59
2023/12/19 08:59:13;;;;;;;1.70;1.58;;;16.70;82.90;;;;;;4171380;28;20706;-60
2023/12/19 09:01:53;;;;;;;;;;;16.70;83.00;;;;;;4171697;28;20091;-60
2023/12/19 09:04:35;;;;;;;1.58;1.52;;;16.80;83.10;;;;;;4177227;28;19970;-60
2023/12/19 09:07:18;;;;;;;1.67;1.65;;;16.80;82.80;;;;;;4186456;28;20510;-59
2023/12/19 09:09:59;;;;;;;1.65;1.65;;;16.90;82.50;;;;;;4184281;28;20400;-59
2023/12/19 09:12:40;;;;;;;1.90;1.80;;;16.90;82.40;;;;;;4187753;28;20511;-59
2023/12/19 09:15:22;;;;;;;2.65;1.85;;;17.00;82.30;;;;;;4188093;28;20055;-59
2023/12/19 09:18:03;;;;;;;;;;;17.00;82.00;;;;;;4180725;28;20134;-57
2023/12/19 09:20:44;;;;;;;1.90;1.80;;;17.00;82.00;;;;;;4188384;28;19931;-57
2023/12/19 09:23:26;;;;;;;2.40;2.30;;;17.00;82.00;;;;;;4188154;28;20056;-59
2023/12/19 09:26:07;;;;;;;2.30;2.20;;;17.00;82.10;;;;;;4187599;28;20071;-59
2023/12/19 09:28:50;;;;;;;2.30;2.20;;;17.00;82.30;;;;;;4175816;28;20094;-59
2023/12/19 09:31:32;;;;;;;2.30;2.20;;;17.00;82.30;;;;;;4173067;28;20519;-59
2023/12/19 09:34:13;;;;;;;1.90;1.80;;;17.10;82.10;;;;;;4162141;28;20064;-58
2023/12/19 09:36:55;;;;;;;3.78;2.72;;;17.10;81.80;;;;;;4157455;28;20187;-59
2023/12/19 09:39:38;;;;;;;2.63;2.42;;;17.10;81.50;;;;;;4170646;28;20060;-59
2023/12/19 09:42:20;;;;;;;2.80;2.60;;;17.10;81.50;;;;;;4155696;28;20175;-58
2023/12/19 09:45:01;;;;;;;2.10;2.00;;;17.10;81.80;;;;;;4171764;28;20505;-59
2023/12/19 09:47:53;;;;;;;3.22;2.45;;;17.00;82.00;;;;;;4171952;28;20052;-59
2023/12/19 09:50:42;;;;;;;2.50;2.40;;;17.10;81.90;;;;;;4186535;28;20513;-56
2023/12/19 09:53:25;;;;;;;2.33;2.22;;;17.10;81.80;;;;;;4187903;28;20055;-59
2023/12/19 09:56:12;;;;;;;2.50;2.40;;;17.10;81.90;;;;;;4187528;28;20051;-59
2023/12/19 09:58:54;;;;;;;2.38;2.28;;;17.10;81.90;;;;;;4186573;28;20048;-59
2023/12/19 10:01:37;;;;;;;2.35;2.25;;;17.00;81.90;;;;;;4183922;28;20087;-57
2023/12/19 10:04:19;;;;;;;2.95;2.30;;;17.00;82.00;;;;;;4178877;28;20063;-58
2023/12/19 10:07:00;;;;;;;2.38;2.28;;;16.90;82.10;;;;;;4170879;28;20048;-57
2023/12/19 10:09:54;;;;;;;2.63;2.42;;;16.90;82.50;;;;;;4170885;28;20594;-56
2023/12/19 10:12:48;;;;;;;2.33;2.22;;;16.80;82.60;;;;;;4170586;28;20056;-59
2023/12/19 10:15:36;;;;;;;2.58;2.35;;;16.70;83.10;;;;;;4169540;28;20052;-58
2023/12/19 10:18:17;;;;;;;2.10;2.00;;;16.70;83.40;;;;;;4170058;28;20178;-59
2023/12/19 10:21:08;;;;;;;2.60;2.40;;;16.70;83.50;;;;;;4170355;28;20063;-58
2023/12/19 10:23:49;;;;;;;3.75;2.83;;;16.70;83.50;;;;;;4170612;28;20052;-59
2023/12/19 10:26:30;;;;;;;2.85;2.05;;;16.60;83.60;;;;;;4169726;28;20416;-58
2023/12/19 10:29:23;;;;;;;2.30;2.20;;;16.60;83.90;;;;;;4170840;28;20056;-59
2023/12/19 10:32:17;;;;;;;2.05;1.95;;;16.60;83.70;;;;;;4169746;28;20056;-58
2023/12/19 10:34:59;;;;;;;2.33;2.22;;;16.60;83.60;;;;;;4163136;28;20188;-59
2023/12/19 10:37:40;;;;;;;2.20;2.10;;;16.60;84.70;;;;;;4184829;28;20068;-59
2023/12/19 10:40:23;;;;;;;2.33;2.22;;;16.70;84.00;;;;;;4185943;28;20411;-59
2023/12/19 10:43:04;;;;;;;2.17;2.08;;;16.70;83.90;;;;;;4186953;28;20491;-59
2023/12/19 10:45:46;;;;;;;2.40;2.30;;;16.60;83.60;;;;;;4186804;28;20442;-58
2023/12/19 10:48:28;;;;;;;2.30;2.20;;;16.60;83.80;;;;;;4187029;28;20048;-59
2023/12/19 10:51:11;;;;;;;3.33;2.25;;;16.60;84.00;;;;;;4186686;28;20541;-59
2023/12/19 10:53:58;;;;;;;5.20;2.63;;;16.60;84.20;;;;;;4181586;28;20052;-58
2023/12/19 10:56:50;;;;;;;2.05;1.95;;;16.70;83.90;;;;;;4170262;28;20056;-59
2023/12/19 10:59:39;;;;;;;2.15;2.05;;;16.80;83.50;;;;;;4169663;28;20056;-58
2023/12/19 11:02:35;;;;;;;2.20;2.10;;;16.90;83.20;;;;;;4170031;28;20171;-59
2023/12/19 11:05:24;;;;;;;2.38;2.28;;;17.00;83.00;;;;;;4169305;28;20208;-58
2023/12/19 11:08:09;;;;;;;2.20;2.10;;;17.00;82.50;;;;;;4169746;28;20155;-59
2023/12/19 11:10:57;;;;;;;2.38;2.28;;;17.10;82.30;;;;;;4154608;28;20139;-58
2023/12/19 11:13:41;;;;;;;1.98;1.95;;;17.20;81.70;;;;;;4173207;28;20054;-51
2023/12/19 11:16:27;;;;;;;2.47;2.30;;;17.30;81.60;;;;;;4170153;28;20422;-59
2023/12/19 11:19:18;;;;;;;2.80;2.50;;;17.20;81.90;;;;;;4167638;28;20873;-59
2023/12/19 11:22:04;;;;;;;2.15;2.05;;;17.20;82.00;;;;;;4180740;28;21456;-58
2023/12/19 11:24:52;;;;;;;2.22;2.13;;;17.20;82.10;;;;;;4175330;28;20055;-59
2023/12/19 11:27:40;;;;;;;2.30;2.20;;;17.30;82.00;;;;;;4181380;28;20155;-59
2023/12/19 11:30:40;;;;;;;2.20;2.10;;;17.40;81.70;;;;;;4173002;28;20052;-59
2023/12/19 11:33:29;;;;;;;2.17;2.08;;;17.30;81.30;;;;;;4166581;28;20060;-58
2023/12/19 11:36:15;;;;;;;2.60;2.45;;;17.30;81.40;;;;;;4165615;28;20109;-59
2023/12/19 11:39:25;;;;;;;2.28;2.17;;;17.30;81.60;;;;;;4180340;28;20193;-59
2023/12/19 11:42:06;;;;;;;2.30;2.20;;;17.20;81.70;;;;;;4182702;28;20145;-58
2023/12/19 11:44:47;;;;;;;;;;;17.20;82.10;;;;;;4178533;28;20051;-59
2023/12/19 11:47:30;;;;;;;2.25;2.15;;;17.20;82.00;;;;;;4169973;28;19947;-59
2023/12/19 11:50:11;;;;;;;2.28;2.17;;;17.20;81.80;;;;;;4170489;28;20044;-58
2023/12/19 11:52:53;;;;;;;2.40;2.30;;;17.20;81.80;;;;;;4181880;28;20052;-59
2023/12/19 11:55:34;;;;;;;2.33;2.22;;;17.20;81.80;;;;;;4179467;28;20094;-59
2023/12/19 11:58:16;;;;;;;2.53;2.42;;;17.20;82.00;;;;;;4169975;28;20056;-59
2023/12/19 12:01:00;;;;;;;2.25;2.15;;;17.10;82.20;;;;;;4181368;28;20074;-59
2023/12/19 12:03:42;;;;;;;2.35;2.25;;;17.00;82.30;;;;;;4184988;28;20125;-59
2023/12/19 12:06:24;;;;;;;2.30;2.20;;;16.90;82.60;;;;;;4182254;28;20064;-58
2023/12/19 12:09:06;;;;;;;2.60;2.50;;;16.90;83.00;;;;;;4173571;28;20044;-64
2023/12/19 12:11:51;;;;;;;2.45;2.25;;;16.80;83.20;;;;;;4169960;28;20082;-61
2023/12/19 12:14:32;;;;;;;2.47;2.28;;;16.70;83.70;;;;;;4176765;28;20075;-61
2023/12/19 12:17:20;;;;;;;2.55;2.45;;;16.70;84.20;;;;;;4174935;28;20072;-63
2023/12/19 12:20:02;;;;;;;1.50;1.50;;;16.60;84.50;;;;;;4179590;28;20071;-64
2023/12/19 12:22:44;;;;;;;2.03;2.00;;;16.60;85.50;;;;;;4173985;28;20060;-64
2023/12/19 12:25:26;;;;;;;2.05;1.80;;;16.60;84.70;;;;;;4169375;28;20059;-64
2023/12/19 12:28:08;;;;;;;1.77;1.67;;;16.60;84.80;;;;;;4169752;28;20064;-63
2023/12/19 12:30:53;;;;;;;1.60;1.60;;;16.60;84.80;;;;;;4155742;28;21130;-62
2023/12/19 12:33:36;;;;;;;2.13;2.03;;;16.60;84.80;;;;;;4170406;28;20068;-62
2023/12/19 12:36:17;;;;;;;2.85;1.77;;;16.60;84.80;;;;;;4177203;28;20121;-62
2023/12/19 12:38:59;;;;;;;1.50;1.40;;;16.60;84.80;;;;;;4167956;28;20818;-64
2023/12/19 12:41:41;;;;;;;2.67;1.85;;;16.60;85.00;;;;;;4168605;28;20072;-64
2023/12/19 12:44:25;;;;;;;1.90;1.80;;;16.70;85.00;;;;;;4172959;28;20048;-62
2023/12/19 12:47:08;;;;;;;1.88;1.77;;;16.70;84.70;;;;;;4192958;28;20060;-64
2023/12/19 12:50:01;;;;;;;2.33;2.22;;;16.70;84.60;;;;;;4169585;28;20190;-64
2023/12/19 12:52:42;;;;;;;1.60;1.60;;;16.80;84.40;;;;;;4178055;28;20590;-61
2023/12/19 12:55:24;;;;;;;2.05;1.95;;;16.70;84.50;;;;;;4170704;28;20060;-56
2023/12/19 12:58:06;;;;;;;1.92;1.83;;;16.70;84.60;;;;;;4169475;28;20056;-58
2023/12/19 13:00:47;;;;;;;2.03;1.52;;;16.80;84.60;;;;;;4169413;28;20071;-57
2023/12/19 13:03:28;;;;;;;2.75;2.65;;;16.80;84.30;;;;;;4169212;28;20063;-57
2023/12/19 13:06:10;;;;;;;2.38;2.28;;;16.90;84.20;;;;;;4173267;28;20175;-59
2023/12/19 13:08:51;;;;;;;2.13;2.03;;;16.90;84.10;;;;;;4171157;28;20051;-58
2023/12/19 13:11:32;;;;;;;1.40;1.40;;;16.90;84.00;;;;;;4181219;28;20056;-55
2023/12/19 13:14:16;;;;;;;1.35;1.35;;;16.90;83.90;;;;;;4180160;28;20064;-60
2023/12/19 13:16:57;;;;;;;2.22;2.13;;;16.90;83.90;;;;;;4178216;28;20051;-59
2023/12/19 13:19:39;;;;;;;1.83;1.73;;;16.90;84.00;;;;;;4178526;28;20194;-60
2023/12/19 13:22:20;;;;;;;;;;;16.90;84.00;;;;;;4168470;28;20511;-59
2023/12/19 13:25:03;;;;;;;1.55;1.55;;;16.90;84.00;;;;;;4178170;28;20059;-59
2023/12/19 13:27:44;;;;;;;1.92;1.83;;;16.90;84.00;;;;;;4169995;28;20549;-59
2023/12/19 13:30:27;;;;;;;2.22;2.13;;;16.90;83.90;;;;;;4178096;28;20732;-64
2023/12/19 13:33:09;;;;;;;2.10;2.00;;;16.90;83.90;;;;;;4171079;28;20067;-65
2023/12/19 13:35:50;;;;;;;2.00;1.90;;;17.00;84.00;;;;;;4179278;28;20403;-65
2023/12/19 13:38:31;;;;;;;2.08;1.98;;;17.00;83.70;;;;;;4181150;28;20059;-65
2023/12/19 13:41:12;;;;;;;2.05;1.95;;;17.10;83.60;;;;;;4166530;28;20247;-64
2023/12/19 13:43:53;;;;;;;1.92;1.83;;;17.10;83.50;;;;;;4183175;28;20158;-64
2023/12/19 13:46:36;;;;;;;1.98;1.88;;;17.10;83.50;;;;;;4182334;28;20063;-59
2023/12/19 13:49:17;;;;;;;2.00;1.90;;;17.10;83.40;;;;;;4181384;28;20055;-59
2023/12/19 13:51:59;;;;;;;2.22;2.13;;;17.10;83.40;;;;;;4184328;28;20047;-59
2023/12/19 13:54:40;;;;;;;;;;;17.00;83.40;;;;;;4176829;28;20048;-59
2023/12/19 13:57:21;;;;;;;1.90;1.80;;;17.00;83.60;;;;;;4169485;28;19935;-59
2023/12/19 14:00:04;;;;;;;2.20;2.10;;;16.90;83.70;;;;;;4184614;28;20087;-59
2023/12/19 14:02:53;;;;;;;2.08;1.98;;;16.80;83.80;;;;;;4170478;28;20068;-59
2023/12/19 14:05:34;;;;;;;2.92;2.50;;;16.70;84.00;;;;;;4177760;28;20227;-59